ASA66 PAJN-KSEA
Flight info
| Callsign | ASA66 |
|---|---|
| Flight time | 2h 9m |
| Altitude | 37000 |
| Route | ANN VIXOR MARNR8 |
| Aircraft | B737/M-SDE2E3FGHIRWXY/LB1 |
Departure
| Time | 2026-04-12 02:09 |
|---|---|
| Airport | Juneau International Airport (PAJN) |
Arrival
| Time | 2026-04-12 04:18 |
|---|---|
| Airport | Seattle–Tacoma International Airport (KSEA) |
| Time | Latitude | Longitude | Altitude | Speed | Heading |
|---|---|---|---|---|---|
| 2026-04-12 01:45 | 58.35847 | -134.58429 | 33 ft | 0 kts | 48° |
| 2026-04-12 02:04 | 58.35845 | -134.58434 | 47 ft | 3 kts | 48° |
| 2026-04-12 02:04 | 58.35828 | -134.58470 | 30 ft | 4 kts | 45° |
| 2026-04-12 02:04 | 58.35807 | -134.58496 | 33 ft | 4 kts | 6° |
| 2026-04-12 02:05 | 58.35785 | -134.58491 | 32 ft | 1 kts | 338° |
| 2026-04-12 02:05 | 58.35784 | -134.58491 | 32 ft | 0 kts | 338° |
| 2026-04-12 02:06 | 58.35786 | -134.58492 | 32 ft | 1 kts | 336° |
| 2026-04-12 02:07 | 58.35797 | -134.58532 | 33 ft | 8 kts | 280° |
| 2026-04-12 02:07 | 58.35755 | -134.58676 | 33 ft | 18 kts | 264° |
| 2026-04-12 02:07 | 58.35792 | -134.58967 | 33 ft | 25 kts | 285° |
| 2026-04-12 02:07 | 58.35836 | -134.59282 | 33 ft | 24 kts | 284° |
| 2026-04-12 02:08 | 58.35871 | -134.59574 | 33 ft | 20 kts | 263° |
| 2026-04-12 02:08 | 58.35773 | -134.59599 | 34 ft | 19 kts | 114° |
| 2026-04-12 02:08 | 58.35730 | -134.59318 | 34 ft | 42 kts | 104° |
| 2026-04-12 02:08 | 58.35577 | -134.58210 | 31 ft | 122 kts | 105° |
| 2026-04-12 02:09 | 58.35312 | -134.56323 | 184 ft | 165 kts | 106° |
| 2026-04-12 02:09 | 58.35009 | -134.54255 | 1056 ft | 162 kts | 112° |
| 2026-04-12 02:09 | 58.34214 | -134.52657 | 1718 ft | 187 kts | 156° |
| 2026-04-12 02:09 | 58.32820 | -134.52634 | 2046 ft | 220 kts | 202° |
| 2026-04-12 02:10 | 58.31613 | -134.54617 | 2444 ft | 248 kts | 239° |
| 2026-04-12 02:10 | 58.31112 | -134.57926 | 2832 ft | 272 kts | 275° |
| 2026-04-12 02:10 | 58.31744 | -134.61175 | 4132 ft | 259 kts | 309° |
| 2026-04-12 02:10 | 58.32980 | -134.63665 | 5167 ft | 263 kts | 316° |
| 2026-04-12 02:11 | 58.34229 | -134.66253 | 6147 ft | 267 kts | 312° |
| 2026-04-12 02:11 | 58.35377 | -134.68983 | 7107 ft | 269 kts | 304° |
| 2026-04-12 02:11 | 58.35985 | -134.72354 | 8031 ft | 275 kts | 275° |
| 2026-04-12 02:11 | 58.36023 | -134.76005 | 9013 ft | 277 kts | 271° |
| 2026-04-12 02:12 | 58.36024 | -134.79705 | 9982 ft | 281 kts | 271° |
| 2026-04-12 02:12 | 58.36032 | -134.83507 | 10612 ft | 298 kts | 271° |
| 2026-04-12 02:12 | 58.35903 | -134.87637 | 10819 ft | 329 kts | 256° |
| 2026-04-12 02:12 | 58.34838 | -134.91575 | 11442 ft | 344 kts | 232° |
| 2026-04-12 02:13 | 58.33220 | -134.94988 | 12305 ft | 350 kts | 228° |
| 2026-04-12 02:13 | 58.31544 | -134.98301 | 13145 ft | 356 kts | 227° |
| 2026-04-12 02:13 | 58.29804 | -135.01718 | 13960 ft | 362 kts | 228° |
| 2026-04-12 02:13 | 58.28049 | -135.05196 | 14758 ft | 366 kts | 229° |
| 2026-04-12 02:14 | 58.26294 | -135.08713 | 15603 ft | 368 kts | 229° |
| 2026-04-12 02:14 | 58.24528 | -135.12273 | 16441 ft | 372 kts | 229° |
| 2026-04-12 02:14 | 58.22749 | -135.15863 | 17249 ft | 376 kts | 229° |
| 2026-04-12 02:14 | 58.20829 | -135.19283 | 18021 ft | 385 kts | 216° |
| 2026-04-12 02:15 | 58.18351 | -135.21311 | 18702 ft | 395 kts | 193° |
| 2026-04-12 02:15 | 58.15645 | -135.21497 | 19414 ft | 400 kts | 172° |
| 2026-04-12 02:15 | 58.12993 | -135.19831 | 20131 ft | 405 kts | 150° |
| 2026-04-12 02:15 | 58.10619 | -135.16944 | 20852 ft | 408 kts | 146° |
| 2026-04-12 02:16 | 58.08284 | -135.13886 | 21471 ft | 413 kts | 145° |
| 2026-04-12 02:16 | 58.06648 | -135.11704 | 21899 ft | 416 kts | 145° |
| 2026-04-12 02:16 | 58.05204 | -135.09771 | 22287 ft | 419 kts | 145° |
| 2026-04-12 02:16 | 58.03396 | -135.07362 | 22776 ft | 421 kts | 145° |
| 2026-04-12 02:17 | 58.01835 | -135.05295 | 23218 ft | 424 kts | 145° |
| 2026-04-12 02:17 | 57.99794 | -135.02612 | 23689 ft | 427 kts | 146° |
| 2026-04-12 02:17 | 57.98610 | -135.01065 | 23927 ft | 429 kts | 146° |
| 2026-04-12 02:17 | 57.97548 | -134.99674 | 24149 ft | 431 kts | 145° |
| 2026-04-12 02:18 | 57.94978 | -134.96317 | 24689 ft | 434 kts | 146° |
| 2026-04-12 02:18 | 57.92802 | -134.93512 | 25148 ft | 437 kts | 146° |
| 2026-04-12 02:18 | 57.90850 | -134.91011 | 25517 ft | 440 kts | 146° |
| 2026-04-12 02:18 | 57.89626 | -134.89448 | 25743 ft | 441 kts | 146° |
| 2026-04-12 02:19 | 57.88528 | -134.88038 | 25957 ft | 443 kts | 146° |
| 2026-04-12 02:19 | 57.86683 | -134.85629 | 26322 ft | 445 kts | 146° |
| 2026-04-12 02:19 | 57.84063 | -134.82274 | 26783 ft | 449 kts | 146° |
| 2026-04-12 02:19 | 57.81476 | -134.78997 | 27219 ft | 453 kts | 146° |
| 2026-04-12 02:20 | 57.78844 | -134.75674 | 27655 ft | 456 kts | 146° |
| 2026-04-12 02:20 | 57.76201 | -134.72339 | 28091 ft | 460 kts | 146° |
| 2026-04-12 02:20 | 57.73538 | -134.68975 | 28528 ft | 463 kts | 146° |
| 2026-04-12 02:20 | 57.70866 | -134.65601 | 28948 ft | 466 kts | 146° |
| 2026-04-12 02:21 | 57.68235 | -134.62280 | 29342 ft | 469 kts | 146° |
| 2026-04-12 02:21 | 57.65887 | -134.59319 | 29687 ft | 472 kts | 146° |
| 2026-04-12 02:21 | 57.64125 | -134.57099 | 29929 ft | 474 kts | 146° |
| 2026-04-12 02:21 | 57.62593 | -134.55174 | 30112 ft | 476 kts | 146° |
| 2026-04-12 02:22 | 57.61080 | -134.53261 | 30287 ft | 477 kts | 145° |
| 2026-04-12 02:22 | 57.58989 | -134.50615 | 30529 ft | 479 kts | 146° |
| 2026-04-12 02:22 | 57.56861 | -134.47941 | 30759 ft | 481 kts | 146° |
| 2026-04-12 02:22 | 57.54902 | -134.45490 | 31006 ft | 482 kts | 146° |
| 2026-04-12 02:23 | 57.53126 | -134.43273 | 31270 ft | 481 kts | 146° |
| 2026-04-12 02:23 | 57.50378 | -134.39851 | 31769 ft | 478 kts | 146° |
| 2026-04-12 02:23 | 57.47579 | -134.36372 | 32250 ft | 476 kts | 146° |
| 2026-04-12 02:23 | 57.44865 | -134.33001 | 32644 ft | 475 kts | 146° |
| 2026-04-12 02:24 | 57.42124 | -134.29601 | 33012 ft | 476 kts | 146° |
| 2026-04-12 02:24 | 57.39379 | -134.26200 | 33395 ft | 475 kts | 146° |
| 2026-04-12 02:24 | 57.36633 | -134.22804 | 33800 ft | 474 kts | 146° |
| 2026-04-12 02:24 | 57.34205 | -134.19805 | 34067 ft | 473 kts | 146° |
| 2026-04-12 02:25 | 57.32355 | -134.17524 | 34271 ft | 473 kts | 146° |
| 2026-04-12 02:25 | 57.30874 | -134.15699 | 34407 ft | 474 kts | 146° |
| 2026-04-12 02:25 | 57.28913 | -134.13281 | 34582 ft | 474 kts | 146° |
| 2026-04-12 02:25 | 57.27635 | -134.11709 | 34720 ft | 474 kts | 146° |
| 2026-04-12 02:26 | 57.25344 | -134.08894 | 34976 ft | 473 kts | 147° |
| 2026-04-12 02:26 | 57.23151 | -134.06207 | 35191 ft | 473 kts | 147° |
| 2026-04-12 02:26 | 57.20510 | -134.02976 | 35423 ft | 473 kts | 147° |
| 2026-04-12 02:26 | 57.18241 | -134.00206 | 35614 ft | 474 kts | 147° |
| 2026-04-12 02:27 | 57.16372 | -133.97923 | 35797 ft | 473 kts | 147° |
| 2026-04-12 02:27 | 57.14522 | -133.95669 | 35981 ft | 473 kts | 147° |
| 2026-04-12 02:27 | 57.12745 | -133.93532 | 36156 ft | 472 kts | 147° |
| 2026-04-12 02:27 | 57.11111 | -133.91573 | 36289 ft | 472 kts | 147° |
| 2026-04-12 02:28 | 57.09534 | -133.89682 | 36401 ft | 473 kts | 147° |
| 2026-04-12 02:28 | 57.07454 | -133.87173 | 36579 ft | 473 kts | 147° |
| 2026-04-12 02:28 | 57.05775 | -133.85130 | 36745 ft | 473 kts | 147° |
| 2026-04-12 02:28 | 57.03043 | -133.81795 | 36934 ft | 474 kts | 147° |
| 2026-04-12 02:29 | 56.97513 | -133.75080 | 36906 ft | 478 kts | 147° |
| 2026-04-12 02:29 | 56.91983 | -133.68419 | 36898 ft | 473 kts | 147° |
| 2026-04-12 02:30 | 56.86514 | -133.61866 | 36908 ft | 470 kts | 147° |
| 2026-04-12 02:30 | 56.82770 | -133.57396 | 36916 ft | 468 kts | 147° |
| 2026-04-12 02:31 | 56.79142 | -133.53072 | 36905 ft | 467 kts | 147° |
| 2026-04-12 02:31 | 56.75970 | -133.49302 | 36906 ft | 467 kts | 147° |
| 2026-04-12 02:32 | 56.73048 | -133.45837 | 36903 ft | 466 kts | 147° |
| 2026-04-12 02:32 | 56.70439 | -133.42713 | 36893 ft | 466 kts | 144° |
| 2026-04-12 02:33 | 56.67136 | -133.37695 | 36696 ft | 469 kts | 144° |
| 2026-04-12 02:33 | 56.65694 | -133.35865 | 36816 ft | 465 kts | 147° |
| 2026-04-12 02:33 | 56.64425 | -133.34399 | 36870 ft | 464 kts | 149° |
| 2026-04-12 02:34 | 56.59305 | -133.28945 | 36913 ft | 470 kts | 150° |
| 2026-04-12 02:34 | 56.53668 | -133.22867 | 36910 ft | 476 kts | 149° |
| 2026-04-12 02:35 | 56.48054 | -133.16480 | 36895 ft | 477 kts | 148° |
| 2026-04-12 02:35 | 56.42475 | -133.09984 | 36886 ft | 476 kts | 147° |
| 2026-04-12 02:36 | 56.36912 | -133.03501 | 36885 ft | 476 kts | 147° |
| 2026-04-12 02:36 | 56.32269 | -132.98119 | 36890 ft | 475 kts | 147° |
| 2026-04-12 02:37 | 56.28992 | -132.94338 | 36876 ft | 475 kts | 147° |
| 2026-04-12 02:37 | 56.24149 | -132.88767 | 36878 ft | 474 kts | 147° |
| 2026-04-12 02:38 | 56.18755 | -132.82575 | 36873 ft | 473 kts | 147° |
| 2026-04-12 02:38 | 56.14168 | -132.77327 | 36875 ft | 472 kts | 148° |
| 2026-04-12 02:39 | 56.10614 | -132.73272 | 36865 ft | 472 kts | 148° |
| 2026-04-12 02:39 | 56.07059 | -132.69233 | 36867 ft | 471 kts | 148° |
| 2026-04-12 02:40 | 56.03906 | -132.65649 | 36863 ft | 471 kts | 148° |
| 2026-04-12 02:40 | 55.99503 | -132.60649 | 36860 ft | 471 kts | 148° |
| 2026-04-12 02:41 | 55.94851 | -132.55389 | 36861 ft | 471 kts | 148° |
| 2026-04-12 02:41 | 55.91510 | -132.51622 | 36862 ft | 471 kts | 148° |
| 2026-04-12 02:42 | 55.85913 | -132.45335 | 36860 ft | 471 kts | 148° |
| 2026-04-12 02:43 | 55.79450 | -132.38101 | 36861 ft | 471 kts | 148° |
| 2026-04-12 02:43 | 55.76484 | -132.34798 | 36862 ft | 471 kts | 148° |
| 2026-04-12 02:44 | 55.71144 | -132.28889 | 36853 ft | 471 kts | 148° |
| 2026-04-12 02:44 | 55.65962 | -132.23117 | 36852 ft | 472 kts | 148° |
| 2026-04-12 02:45 | 55.61186 | -132.17809 | 36857 ft | 472 kts | 148° |
| 2026-04-12 02:45 | 55.56194 | -132.12292 | 36852 ft | 473 kts | 148° |
| 2026-04-12 02:46 | 55.51439 | -132.07058 | 36841 ft | 473 kts | 148° |
| 2026-04-12 02:46 | 55.47482 | -132.02706 | 36839 ft | 473 kts | 148° |
| 2026-04-12 02:47 | 55.43586 | -131.98441 | 36833 ft | 473 kts | 148° |
| 2026-04-12 02:47 | 55.40114 | -131.94662 | 36837 ft | 473 kts | 149° |
| 2026-04-12 02:48 | 55.35649 | -131.90032 | 36829 ft | 473 kts | 148° |
| 2026-04-12 02:48 | 55.31190 | -131.85082 | 36837 ft | 473 kts | 148° |
| 2026-04-12 02:49 | 55.27345 | -131.80799 | 36836 ft | 473 kts | 148° |
| 2026-04-12 02:49 | 55.23525 | -131.76622 | 36827 ft | 473 kts | 149° |
| 2026-04-12 02:50 | 55.19726 | -131.72533 | 36832 ft | 473 kts | 149° |
| 2026-04-12 02:50 | 55.16042 | -131.68484 | 36832 ft | 472 kts | 149° |
| 2026-04-12 02:51 | 55.11303 | -131.63456 | 36831 ft | 472 kts | 149° |
| 2026-04-12 02:51 | 55.04871 | -131.56268 | 36801 ft | 473 kts | 140° |
| 2026-04-12 02:52 | 54.99921 | -131.48715 | 36808 ft | 473 kts | 138° |
| 2026-04-12 02:52 | 54.95038 | -131.41052 | 36808 ft | 473 kts | 138° |
| 2026-04-12 02:53 | 54.90163 | -131.33490 | 36803 ft | 473 kts | 138° |
| 2026-04-12 02:53 | 54.82751 | -131.22162 | 36804 ft | 473 kts | 139° |
| 2026-04-12 02:54 | 54.77799 | -131.14648 | 36803 ft | 473 kts | 139° |
| 2026-04-12 02:54 | 54.72842 | -131.07150 | 36803 ft | 473 kts | 139° |
| 2026-04-12 02:55 | 54.67918 | -130.99725 | 36809 ft | 473 kts | 139° |
| 2026-04-12 02:55 | 54.62958 | -130.92269 | 36808 ft | 473 kts | 139° |
| 2026-04-12 02:56 | 54.57994 | -130.84833 | 36808 ft | 472 kts | 139° |
| 2026-04-12 02:56 | 54.53028 | -130.77417 | 36801 ft | 472 kts | 139° |
| 2026-04-12 02:57 | 54.48094 | -130.70075 | 36794 ft | 472 kts | 139° |
| 2026-04-12 02:57 | 54.43127 | -130.62707 | 36791 ft | 472 kts | 139° |
| 2026-04-12 02:58 | 54.38156 | -130.55358 | 36788 ft | 472 kts | 139° |
| 2026-04-12 02:58 | 54.33176 | -130.48022 | 36787 ft | 471 kts | 139° |
| 2026-04-12 02:59 | 54.28234 | -130.40764 | 36792 ft | 471 kts | 139° |
| 2026-04-12 02:59 | 54.23251 | -130.33471 | 36781 ft | 471 kts | 139° |
| 2026-04-12 03:00 | 54.18265 | -130.26196 | 36803 ft | 471 kts | 139° |
| 2026-04-12 03:00 | 54.13273 | -130.18937 | 36797 ft | 471 kts | 139° |
| 2026-04-12 03:01 | 54.08312 | -130.11747 | 36799 ft | 471 kts | 139° |
| 2026-04-12 03:01 | 54.03315 | -130.04528 | 36800 ft | 471 kts | 139° |
| 2026-04-12 03:02 | 53.98314 | -129.97326 | 36792 ft | 471 kts | 139° |
| 2026-04-12 03:02 | 53.93307 | -129.90140 | 36792 ft | 471 kts | 140° |
| 2026-04-12 03:03 | 53.88327 | -129.83016 | 36781 ft | 471 kts | 140° |
| 2026-04-12 03:03 | 53.83318 | -129.75874 | 36779 ft | 471 kts | 140° |
| 2026-04-12 03:04 | 53.78309 | -129.68754 | 36766 ft | 470 kts | 140° |
| 2026-04-12 03:04 | 53.73304 | -129.61663 | 36780 ft | 469 kts | 140° |
| 2026-04-12 03:05 | 53.68332 | -129.54642 | 36772 ft | 469 kts | 140° |
| 2026-04-12 03:05 | 53.63331 | -129.47600 | 36766 ft | 468 kts | 140° |
| 2026-04-12 03:06 | 53.58324 | -129.40575 | 36758 ft | 468 kts | 140° |
| 2026-04-12 03:06 | 53.53316 | -129.33570 | 36753 ft | 468 kts | 140° |
| 2026-04-12 03:07 | 53.48348 | -129.26643 | 36767 ft | 467 kts | 140° |
| 2026-04-12 03:07 | 53.43347 | -129.19691 | 36764 ft | 467 kts | 140° |
| 2026-04-12 03:08 | 53.38348 | -129.12765 | 36755 ft | 466 kts | 140° |
| 2026-04-12 03:08 | 53.33410 | -129.05944 | 36756 ft | 466 kts | 140° |
| 2026-04-12 03:09 | 53.29809 | -129.00984 | 36751 ft | 466 kts | 140° |
| 2026-04-12 03:09 | 53.26422 | -128.96344 | 36756 ft | 465 kts | 140° |
| 2026-04-12 03:10 | 53.21423 | -128.89479 | 36760 ft | 465 kts | 140° |
| 2026-04-12 03:10 | 53.16418 | -128.82634 | 36759 ft | 465 kts | 140° |
| 2026-04-12 03:11 | 53.11451 | -128.75867 | 36760 ft | 465 kts | 140° |
| 2026-04-12 03:11 | 53.06446 | -128.69067 | 36771 ft | 464 kts | 140° |
| 2026-04-12 03:12 | 53.01442 | -128.62293 | 36769 ft | 464 kts | 140° |
| 2026-04-12 03:12 | 52.96433 | -128.55532 | 36766 ft | 463 kts | 140° |
| 2026-04-12 03:13 | 52.91433 | -128.48803 | 36760 ft | 463 kts | 140° |
| 2026-04-12 03:13 | 52.86466 | -128.42140 | 36769 ft | 463 kts | 140° |
| 2026-04-12 03:14 | 52.81463 | -128.35449 | 36767 ft | 462 kts | 141° |
| 2026-04-12 03:14 | 52.76463 | -128.28780 | 36765 ft | 462 kts | 141° |
| 2026-04-12 03:15 | 52.71465 | -128.22137 | 36768 ft | 461 kts | 141° |
| 2026-04-12 03:15 | 52.66502 | -128.15559 | 36773 ft | 461 kts | 141° |
| 2026-04-12 03:16 | 52.61509 | -128.08960 | 36779 ft | 461 kts | 141° |
| 2026-04-12 03:16 | 52.56508 | -128.02372 | 36775 ft | 460 kts | 141° |
| 2026-04-12 03:17 | 52.51544 | -127.95851 | 36775 ft | 460 kts | 141° |
| 2026-04-12 03:17 | 52.46543 | -127.89302 | 36778 ft | 460 kts | 141° |
| 2026-04-12 03:18 | 52.41537 | -127.82766 | 36784 ft | 460 kts | 141° |
| 2026-04-12 03:18 | 52.36526 | -127.76243 | 36780 ft | 460 kts | 141° |
| 2026-04-12 03:19 | 52.31516 | -127.69741 | 36788 ft | 460 kts | 141° |
| 2026-04-12 03:19 | 52.26530 | -127.63288 | 36779 ft | 460 kts | 141° |
| 2026-04-12 03:20 | 52.21508 | -127.56808 | 36783 ft | 460 kts | 142° |
| 2026-04-12 03:20 | 52.16479 | -127.50340 | 36773 ft | 460 kts | 142° |
| 2026-04-12 03:21 | 52.11449 | -127.43888 | 36781 ft | 460 kts | 142° |
| 2026-04-12 03:21 | 52.06454 | -127.37501 | 36778 ft | 460 kts | 142° |
| 2026-04-12 03:22 | 52.01419 | -127.31080 | 36776 ft | 460 kts | 142° |
| 2026-04-12 03:22 | 51.96388 | -127.24684 | 36772 ft | 459 kts | 142° |
| 2026-04-12 03:23 | 51.91360 | -127.18311 | 36769 ft | 459 kts | 142° |
| 2026-04-12 03:23 | 51.86366 | -127.12000 | 36780 ft | 458 kts | 142° |
| 2026-04-12 03:24 | 51.81339 | -127.05663 | 36773 ft | 458 kts | 142° |
| 2026-04-12 03:24 | 51.76306 | -126.99339 | 36769 ft | 458 kts | 142° |
| 2026-04-12 03:25 | 51.72121 | -126.94095 | 36767 ft | 458 kts | 142° |
| 2026-04-12 03:25 | 51.66267 | -126.86779 | 36768 ft | 458 kts | 142° |
| 2026-04-12 03:26 | 51.61230 | -126.80504 | 36776 ft | 458 kts | 142° |
| 2026-04-12 03:26 | 51.57040 | -126.75299 | 36773 ft | 458 kts | 142° |
| 2026-04-12 03:27 | 51.52001 | -126.69054 | 36777 ft | 457 kts | 142° |
| 2026-04-12 03:27 | 51.46958 | -126.62823 | 36777 ft | 457 kts | 142° |
| 2026-04-12 03:28 | 51.41915 | -126.56609 | 36784 ft | 457 kts | 143° |
| 2026-04-12 03:28 | 51.36906 | -126.50456 | 36771 ft | 457 kts | 143° |
| 2026-04-12 03:29 | 51.31868 | -126.44284 | 36777 ft | 456 kts | 143° |
| 2026-04-12 03:29 | 51.26833 | -126.38133 | 36785 ft | 455 kts | 143° |
| 2026-04-12 03:30 | 51.21798 | -126.31999 | 36787 ft | 455 kts | 143° |
| 2026-04-12 03:30 | 51.16800 | -126.25927 | 36792 ft | 455 kts | 143° |
| 2026-04-12 03:31 | 51.11768 | -126.19832 | 36781 ft | 454 kts | 143° |
| 2026-04-12 03:31 | 51.06736 | -126.13753 | 36783 ft | 454 kts | 143° |
| 2026-04-12 03:32 | 51.01705 | -126.07694 | 36782 ft | 454 kts | 143° |
| 2026-04-12 03:32 | 50.96703 | -126.01684 | 36784 ft | 454 kts | 143° |
| 2026-04-12 03:33 | 50.91663 | -125.95647 | 36783 ft | 454 kts | 143° |
| 2026-04-12 03:33 | 50.86614 | -125.89615 | 36776 ft | 455 kts | 143° |
| 2026-04-12 03:34 | 50.81620 | -125.83667 | 36782 ft | 455 kts | 143° |
| 2026-04-12 03:34 | 50.76504 | -125.77588 | 36783 ft | 455 kts | 143° |
| 2026-04-12 03:35 | 50.73161 | -125.73627 | 36786 ft | 455 kts | 143° |
| 2026-04-12 03:36 | 50.62087 | -125.60553 | 36784 ft | 456 kts | 144° |
| 2026-04-12 03:36 | 50.58407 | -125.56235 | 36782 ft | 456 kts | 144° |
| 2026-04-12 03:37 | 50.54681 | -125.51860 | 36786 ft | 456 kts | 144° |
| 2026-04-12 03:37 | 50.51946 | -125.48618 | 36792 ft | 456 kts | 143° |
| 2026-04-12 03:38 | 50.48635 | -125.44708 | 36783 ft | 456 kts | 144° |
| 2026-04-12 03:38 | 50.45827 | -125.41487 | 36784 ft | 456 kts | 144° |
| 2026-04-12 03:39 | 50.42512 | -125.37674 | 36789 ft | 455 kts | 144° |
| 2026-04-12 03:39 | 50.39370 | -125.34013 | 36784 ft | 455 kts | 144° |
| 2026-04-12 03:40 | 50.35157 | -125.29091 | 36793 ft | 455 kts | 144° |
| 2026-04-12 03:40 | 50.30778 | -125.24007 | 36789 ft | 455 kts | 144° |
| 2026-04-12 03:41 | 50.28966 | -125.21908 | 36799 ft | 455 kts | 144° |
| 2026-04-12 03:41 | 50.25593 | -125.18039 | 36790 ft | 455 kts | 146° |
| 2026-04-12 03:42 | 50.22113 | -125.14127 | 36801 ft | 455 kts | 144° |
| 2026-04-12 03:42 | 50.19272 | -125.10828 | 36794 ft | 455 kts | 143° |
| 2026-04-12 03:43 | 50.16551 | -125.07640 | 36797 ft | 455 kts | 144° |
| 2026-04-12 03:43 | 50.13933 | -125.04628 | 36797 ft | 455 kts | 144° |
| 2026-04-12 03:44 | 50.11141 | -125.01444 | 36799 ft | 454 kts | 144° |
| 2026-04-12 03:44 | 50.06727 | -124.96426 | 36790 ft | 455 kts | 144° |
| 2026-04-12 03:45 | 50.03601 | -124.92836 | 36791 ft | 455 kts | 144° |
| 2026-04-12 03:45 | 49.98513 | -124.87005 | 36792 ft | 455 kts | 144° |
| 2026-04-12 03:46 | 49.93359 | -124.81135 | 36806 ft | 455 kts | 144° |
| 2026-04-12 03:46 | 49.88258 | -124.75353 | 36802 ft | 455 kts | 144° |
| 2026-04-12 03:47 | 49.83129 | -124.69558 | 36797 ft | 455 kts | 145° |
| 2026-04-12 03:47 | 49.78046 | -124.63830 | 36785 ft | 455 kts | 145° |
| 2026-04-12 03:48 | 49.72931 | -124.58081 | 36789 ft | 456 kts | 145° |
| 2026-04-12 03:48 | 49.67795 | -124.52323 | 36794 ft | 456 kts | 145° |
| 2026-04-12 03:49 | 49.62645 | -124.46566 | 36790 ft | 457 kts | 145° |
| 2026-04-12 03:49 | 49.57530 | -124.40862 | 36791 ft | 457 kts | 145° |
| 2026-04-12 03:50 | 49.52371 | -124.35125 | 36805 ft | 457 kts | 145° |
| 2026-04-12 03:50 | 49.47299 | -124.29499 | 36807 ft | 457 kts | 145° |
| 2026-04-12 03:51 | 49.42320 | -124.23991 | 36790 ft | 457 kts | 146° |
| 2026-04-12 03:51 | 49.38894 | -124.20209 | 36794 ft | 456 kts | 145° |
| 2026-04-12 03:52 | 49.34588 | -124.15465 | 36787 ft | 456 kts | 146° |
| 2026-04-12 03:52 | 49.28569 | -124.08851 | 36797 ft | 456 kts | 146° |
| 2026-04-12 03:53 | 49.23599 | -124.03405 | 36807 ft | 456 kts | 145° |
| 2026-04-12 03:53 | 49.18718 | -123.98069 | 36786 ft | 455 kts | 146° |
| 2026-04-12 03:54 | 49.13588 | -123.92475 | 36801 ft | 455 kts | 146° |
| 2026-04-12 03:54 | 49.09539 | -123.88071 | 36788 ft | 454 kts | 146° |
| 2026-04-12 03:55 | 49.06083 | -123.84320 | 36186 ft | 465 kts | 146° |
| 2026-04-12 03:55 | 49.04374 | -123.82468 | 35838 ft | 465 kts | 146° |
| 2026-04-12 03:55 | 49.01781 | -123.79659 | 35129 ft | 464 kts | 146° |
| 2026-04-12 03:55 | 48.99381 | -123.77062 | 34464 ft | 464 kts | 146° |
| 2026-04-12 03:56 | 48.96581 | -123.74036 | 33570 ft | 466 kts | 146° |
| 2026-04-12 03:56 | 48.93943 | -123.71190 | 32875 ft | 462 kts | 146° |
| 2026-04-12 03:56 | 48.90505 | -123.67485 | 32127 ft | 453 kts | 146° |
| 2026-04-12 03:56 | 48.87954 | -123.64740 | 31597 ft | 447 kts | 146° |
| 2026-04-12 03:57 | 48.86245 | -123.62903 | 31220 ft | 443 kts | 146° |
| 2026-04-12 03:57 | 48.83819 | -123.60299 | 30720 ft | 437 kts | 146° |
| 2026-04-12 03:57 | 48.81384 | -123.57689 | 30205 ft | 432 kts | 145° |
| 2026-04-12 03:57 | 48.78948 | -123.55079 | 29658 ft | 426 kts | 145° |
| 2026-04-12 03:58 | 48.76541 | -123.52504 | 29093 ft | 419 kts | 145° |
| 2026-04-12 03:58 | 48.74178 | -123.49980 | 28561 ft | 413 kts | 145° |
| 2026-04-12 03:58 | 48.71833 | -123.47514 | 28021 ft | 407 kts | 147° |
| 2026-04-12 03:58 | 48.68703 | -123.44514 | 27380 ft | 399 kts | 148° |
| 2026-04-12 03:59 | 48.67105 | -123.43044 | 26996 ft | 396 kts | 148° |
| 2026-04-12 03:59 | 48.64753 | -123.40896 | 26460 ft | 392 kts | 148° |
| 2026-04-12 03:59 | 48.62462 | -123.38799 | 25957 ft | 389 kts | 148° |
| 2026-04-12 03:59 | 48.60163 | -123.36684 | 25442 ft | 385 kts | 148° |
| 2026-04-12 04:00 | 48.57888 | -123.34582 | 24941 ft | 382 kts | 148° |
| 2026-04-12 04:00 | 48.55634 | -123.32493 | 24445 ft | 379 kts | 148° |
| 2026-04-12 04:00 | 48.53399 | -123.30420 | 23952 ft | 376 kts | 148° |
| 2026-04-12 04:00 | 48.51173 | -123.28355 | 23472 ft | 374 kts | 148° |
| 2026-04-12 04:01 | 48.48963 | -123.26307 | 22905 ft | 372 kts | 148° |
| 2026-04-12 04:01 | 48.46766 | -123.24272 | 22355 ft | 369 kts | 148° |
| 2026-04-12 04:01 | 48.44619 | -123.22286 | 21868 ft | 365 kts | 148° |
| 2026-04-12 04:01 | 48.42462 | -123.20293 | 21356 ft | 362 kts | 148° |
| 2026-04-12 04:02 | 48.40323 | -123.18319 | 20868 ft | 359 kts | 148° |
| 2026-04-12 04:02 | 48.36097 | -123.14424 | 19891 ft | 353 kts | 148° |
| 2026-04-12 04:02 | 48.34006 | -123.12501 | 19404 ft | 351 kts | 148° |
| 2026-04-12 04:03 | 48.31930 | -123.10594 | 18935 ft | 349 kts | 148° |
| 2026-04-12 04:03 | 48.29866 | -123.08699 | 18466 ft | 346 kts | 148° |
| 2026-04-12 04:03 | 48.27856 | -123.06856 | 18127 ft | 341 kts | 148° |
| 2026-04-12 04:03 | 48.25839 | -123.05008 | 17600 ft | 339 kts | 148° |
| 2026-04-12 04:04 | 48.23833 | -123.03171 | 17109 ft | 337 kts | 149° |
| 2026-04-12 04:04 | 48.21829 | -123.01338 | 16553 ft | 337 kts | 149° |
| 2026-04-12 04:04 | 48.19842 | -122.99521 | 16144 ft | 334 kts | 149° |
| 2026-04-12 04:04 | 48.17859 | -122.97709 | 15665 ft | 333 kts | 149° |
| 2026-04-12 04:05 | 48.15884 | -122.95907 | 15194 ft | 332 kts | 149° |
| 2026-04-12 04:05 | 48.13920 | -122.94116 | 14726 ft | 330 kts | 149° |
| 2026-04-12 04:05 | 48.11963 | -122.92334 | 14260 ft | 329 kts | 149° |
| 2026-04-12 04:05 | 48.10014 | -122.90558 | 13791 ft | 327 kts | 149° |
| 2026-04-12 04:06 | 48.08097 | -122.88815 | 13287 ft | 327 kts | 150° |
| 2026-04-12 04:06 | 48.06156 | -122.87052 | 12768 ft | 326 kts | 150° |
| 2026-04-12 04:06 | 48.04262 | -122.85237 | 12444 ft | 320 kts | 142° |
| 2026-04-12 04:06 | 48.02823 | -122.82741 | 12012 ft | 318 kts | 123° |
| 2026-04-12 04:07 | 48.01658 | -122.79953 | 11576 ft | 316 kts | 122° |
| 2026-04-12 04:07 | 48.00493 | -122.77185 | 11228 ft | 311 kts | 123° |
| 2026-04-12 04:07 | 47.99351 | -122.74517 | 11102 ft | 299 kts | 123° |
| 2026-04-12 04:07 | 47.98288 | -122.71907 | 10878 ft | 291 kts | 116° |
| 2026-04-12 04:08 | 47.97535 | -122.69091 | 10622 ft | 294 kts | 109° |
| 2026-04-12 04:08 | 47.96881 | -122.66179 | 10343 ft | 298 kts | 108° |
| 2026-04-12 04:08 | 47.96238 | -122.63289 | 10038 ft | 295 kts | 109° |
| 2026-04-12 04:08 | 47.95579 | -122.60412 | 9731 ft | 291 kts | 109° |
| 2026-04-12 04:09 | 47.94914 | -122.57586 | 9402 ft | 286 kts | 110° |
| 2026-04-12 04:09 | 47.94251 | -122.54810 | 9094 ft | 282 kts | 110° |
| 2026-04-12 04:09 | 47.93593 | -122.52078 | 8816 ft | 278 kts | 110° |
| 2026-04-12 04:09 | 47.92920 | -122.49382 | 8528 ft | 276 kts | 116° |
| 2026-04-12 04:10 | 47.91742 | -122.47201 | 8260 ft | 268 kts | 145° |
| 2026-04-12 04:10 | 47.90114 | -122.45955 | 7998 ft | 261 kts | 163° |
| 2026-04-12 04:10 | 47.88411 | -122.45193 | 7752 ft | 258 kts | 165° |
| 2026-04-12 04:10 | 47.86687 | -122.44468 | 7485 ft | 258 kts | 165° |
| 2026-04-12 04:11 | 47.84963 | -122.43738 | 7227 ft | 258 kts | 165° |
| 2026-04-12 04:11 | 47.83240 | -122.42993 | 6965 ft | 258 kts | 165° |
| 2026-04-12 04:11 | 47.81522 | -122.42240 | 6705 ft | 257 kts | 164° |
| 2026-04-12 04:11 | 47.79812 | -122.41487 | 6433 ft | 255 kts | 164° |
| 2026-04-12 04:12 | 47.78123 | -122.40741 | 6167 ft | 252 kts | 164° |
| 2026-04-12 04:12 | 47.76464 | -122.39962 | 5892 ft | 249 kts | 159° |
| 2026-04-12 04:12 | 47.74920 | -122.38908 | 5623 ft | 240 kts | 155° |
| 2026-04-12 04:12 | 47.73446 | -122.37814 | 5377 ft | 234 kts | 154° |
| 2026-04-12 04:13 | 47.72001 | -122.36748 | 5143 ft | 231 kts | 155° |
| 2026-04-12 04:13 | 47.70585 | -122.35721 | 4918 ft | 228 kts | 155° |
| 2026-04-12 04:13 | 47.69164 | -122.34702 | 4685 ft | 226 kts | 155° |
| 2026-04-12 04:13 | 47.67751 | -122.33695 | 4450 ft | 224 kts | 155° |
| 2026-04-12 04:14 | 47.66346 | -122.32697 | 4216 ft | 223 kts | 155° |
| 2026-04-12 04:14 | 47.64936 | -122.31779 | 4019 ft | 221 kts | 167° |
| 2026-04-12 04:14 | 47.63413 | -122.31660 | 3820 ft | 220 kts | 183° |
| 2026-04-12 04:14 | 47.61883 | -122.31686 | 3531 ft | 220 kts | 180° |
| 2026-04-12 04:15 | 47.60369 | -122.31679 | 3236 ft | 216 kts | 181° |
| 2026-04-12 04:15 | 47.58904 | -122.31685 | 2939 ft | 211 kts | 181° |
| 2026-04-12 04:15 | 47.57461 | -122.31697 | 2649 ft | 203 kts | 181° |
| 2026-04-12 04:15 | 47.56091 | -122.31709 | 2383 ft | 190 kts | 181° |
| 2026-04-12 04:16 | 47.54820 | -122.31720 | 2137 ft | 176 kts | 180° |
| 2026-04-12 04:16 | 47.53642 | -122.31730 | 1890 ft | 163 kts | 180° |
| 2026-04-12 04:16 | 47.52558 | -122.31739 | 1728 ft | 147 kts | 179° |
| 2026-04-12 04:16 | 47.51568 | -122.31747 | 1492 ft | 139 kts | 179° |
| 2026-04-12 04:17 | 47.50595 | -122.31757 | 1341 ft | 141 kts | 179° |
| 2026-04-12 04:17 | 47.49608 | -122.31763 | 1137 ft | 143 kts | 179° |
| 2026-04-12 04:17 | 47.48633 | -122.31767 | 917 ft | 141 kts | 180° |
| 2026-04-12 04:17 | 47.47657 | -122.31777 | 701 ft | 139 kts | 182° |
| 2026-04-12 04:18 | 47.46691 | -122.31784 | 534 ft | 139 kts | 180° |
| 2026-04-12 04:18 | 47.45737 | -122.31793 | 411 ft | 125 kts | 179° |
| 2026-04-12 04:18 | 47.45091 | -122.31796 | 393 ft | 61 kts | 180° |
| 2026-04-12 04:18 | 47.44703 | -122.31794 | 384 ft | 41 kts | 174° |
| 2026-04-12 04:19 | 47.44473 | -122.31650 | 374 ft | 35 kts | 150° |
| 2026-04-12 04:19 | 47.44286 | -122.31476 | 376 ft | 26 kts | 136° |